Time;durP1;ratioP1;P1;durP2;ratioP2;P2;SDS_P1;SDS_P2;PMS_P1;PMS_P2;Temp;Humidity;BMP_temperature;BMP_pressure;BME280_temperature;BME280_humidity;BME280_pressure;Samples;Min_cycle;Max_cycle;Signal;HPM_P1;HPM_P2
2022/04/26 03:37:53;;;;;;;15.80;8.40;;;;;;;15.02;52.62;92067.47;5058757;27;20457;-72
2022/04/26 03:40:20;;;;;;;11.93;8.87;;;;;;;15.01;52.43;92064.13;5058747;28;20713;-72
2022/04/26 03:42:47;;;;;;;9.57;7.97;;;;;;;14.90;52.67;92066.59;5058877;27;20578;-71
2022/04/26 03:45:15;;;;;;;14.57;8.27;;;;;;;14.87;52.47;92066.81;5058932;28;20539;-72
2022/04/26 03:47:42;;;;;;;12.03;7.73;;;;;;;14.48;53.30;92065.19;5063956;27;20554;-72
2022/04/26 03:50:11;;;;;;;19.50;8.73;;;;;;;14.44;53.62;92038.34;5063692;27;20486;-72
2022/04/26 03:52:39;;;;;;;20.03;9.60;;;;;;;14.27;54.61;92066.56;5058476;27;20584;-72
2022/04/26 03:55:07;;;;;;;18.47;10.27;;;;;;;14.16;54.88;92067.28;5058456;28;20558;-72
2022/04/26 03:57:35;;;;;;;17.63;9.40;;;;;;;14.10;55.08;92071.03;5058042;28;20576;-72
2022/04/26 04:00:02;;;;;;;20.50;9.90;;;;;;;14.33;54.34;92079.69;5058939;28;20250;-72
2022/04/26 04:02:29;;;;;;;12.87;8.63;;;;;;;14.30;54.42;92056.22;5058304;27;20641;-72
2022/04/26 04:04:57;;;;;;;12.40;8.23;;;;;;;14.51;54.24;92072.63;5058772;28;20553;-72
2022/04/26 04:07:25;;;;;;;5.67;5.27;;;;;;;14.59;54.28;92077.97;5061728;27;20580;-72
2022/04/26 04:09:54;;;;;;;7.73;4.63;;;;;;;14.32;55.04;92072.97;5058013;28;20518;-72
2022/04/26 04:12:21;;;;;;;8.30;7.03;;;;;;;14.43;54.85;92085.81;5058390;28;20264;-72
2022/04/26 04:14:48;;;;;;;18.10;9.73;;;;;;;14.55;54.60;92081.66;5058396;28;20486;-72
2022/04/26 04:17:16;;;;;;;19.10;10.17;;;;;;;14.59;54.70;92082.28;5058267;28;20577;-72
2022/04/26 04:19:43;;;;;;;16.53;9.53;;;;;;;14.63;55.15;92065.91;5057855;28;20209;-72
2022/04/26 04:22:10;;;;;;;16.23;8.83;;;;;;;14.71;54.88;92076.34;5061457;27;20468;-72
2022/04/26 04:24:39;;;;;;;7.07;6.43;;;;;;;14.90;54.59;92090.28;5098919;27;20489;-72
2022/04/26 04:27:09;;;;;;;3.73;3.47;;;;;;;14.93;54.12;92089.25;5066525;27;20477;-71
2022/04/26 04:29:36;;;;;;;3.67;3.30;;;;;;;15.15;54.16;92075.91;5057705;28;20463;-73
2022/04/26 04:32:04;;;;;;;3.70;3.50;;;;;;;14.97;53.79;92041.56;5061224;27;20551;-73
2022/04/26 04:34:31;;;;;;;6.30;3.93;;;;;;;15.48;53.26;92106.66;5062344;27;20667;-73
2022/04/26 04:36:58;;;;;;;4.80;4.27;;;;;;;15.68;52.97;92105.28;5059613;27;20603;-73
2022/04/26 04:39:27;;;;;;;8.77;4.73;;;;;;;15.84;52.20;92097.38;5057704;27;20554;-73
2022/04/26 04:41:55;;;;;;;6.53;4.60;;;;;;;16.17;50.97;92083.03;5061417;27;20499;-74
2022/04/26 04:44:23;;;;;;;11.30;9.63;;;;;;;16.28;50.95;92112.84;5060202;27;20200;-73
2022/04/26 04:46:50;;;;;;;11.37;10.17;;;;;;;16.46;50.97;92126.81;5065315;27;20472;-74
2022/04/26 04:49:17;;;;;;;13.27;10.30;;;;;;;16.61;50.29;92122.38;5061824;27;20604;-75
2022/04/26 04:51:45;;;;;;;8.93;8.20;;;;;;;16.53;50.10;92116.97;5059116;27;20474;-74
2022/04/26 04:54:12;;;;;;;9.83;9.00;;;;;;;16.47;50.24;92097.84;5059681;27;20494;-72
2022/04/26 04:56:39;;;;;;;31.57;13.57;;;;;;;16.50;49.65;92100.19;5059630;27;20316;-73
2022/04/26 04:59:08;;;;;;;17.47;11.37;;;;;;;16.92;49.78;92123.44;5055600;27;20469;-75
2022/04/26 05:01:35;;;;;;;21.80;12.13;;;;;;;16.80;49.56;92132.81;5058050;27;20749;-73
2022/04/26 05:04:02;;;;;;;19.80;11.10;;;;;;;16.63;50.71;92130.69;5058579;27;20568;-73
2022/04/26 05:06:30;;;;;;;19.43;10.73;;;;;;;16.19;51.28;92128.81;5067876;27;20473;-72
2022/04/26 05:08:58;;;;;;;21.20;11.03;;;;;;;16.06;52.53;92117.84;5059374;27;20651;-73
2022/04/26 05:11:25;;;;;;;13.83;8.83;;;;;;;16.15;52.16;92127.41;5059212;27;20579;-72
2022/04/26 05:13:52;;;;;;;9.30;8.17;;;;;;;16.19;52.04;92123.72;5059000;27;20470;-73
2022/04/26 05:16:21;;;;;;;11.60;8.73;;;;;;;16.52;51.63;92134.00;5059355;27;20580;-73
2022/04/26 05:18:49;;;;;;;13.40;10.97;;;;;;;16.32;51.18;92131.28;5056150;28;20630;-73
2022/04/26 05:21:16;;;;;;;31.73;13.60;;;;;;;16.43;51.29;92129.59;5061459;27;20307;-74
2022/04/26 05:26:29;;;;;;;28.40;11.00;;;;;;;16.55;51.25;92110.84;5059722;27;20523;-72
2022/04/26 05:28:56;;;;;;;19.40;11.30;;;;;;;16.81;51.21;92120.88;5059054;27;20510;-73
2022/04/26 05:31:25;;;;;;;16.03;8.00;;;;;;;17.14;49.96;92115.81;5057624;27;20520;-72
2022/04/26 05:33:52;;;;;;;49.70;16.33;;;;;;;17.08;49.12;92100.94;5061369;27;20471;-72
2022/04/26 05:36:20;;;;;;;23.77;10.10;;;;;;;17.49;48.91;92120.78;5056799;27;20690;-73
2022/04/26 05:38:47;;;;;;;11.87;7.57;;;;;;;17.38;48.22;92121.59;5062692;27;20200;-73
2022/04/26 05:41:15;;;;;;;6.57;6.00;;;;;;;17.29;48.38;92111.28;5066499;27;20591;-74
2022/04/26 05:43:42;;;;;;;7.53;6.07;;;;;;;17.32;48.87;92123.81;5058683;27;20510;-72
2022/04/26 05:46:12;;;;;;;6.70;5.27;;;;;;;17.61;48.92;92126.72;5059331;27;20488;-73
2022/04/26 05:48:48;;;;;;;7.47;4.93;;;;;;;17.24;50.17;92124.38;5065686;27;20600;-73
2022/04/26 05:51:16;;;;;;;4.37;3.97;;;;;;;17.23;49.64;92125.34;5063970;27;20614;-72
2022/04/26 05:53:43;;;;;;;3.93;3.60;;;;;;;16.97;49.74;92129.84;5058056;27;20580;-73
2022/04/26 05:56:12;;;;;;;5.73;3.50;;;;;;;16.92;50.08;92113.25;5057410;27;20620;-73
2022/04/26 05:58:39;;;;;;;4.03;3.73;;;;;;;17.01;50.58;92119.41;5061124;27;20196;-73
2022/04/26 06:01:07;;;;;;;4.20;3.30;;;;;;;16.90;50.27;92123.56;5057775;27;20635;-73
2022/04/26 06:03:34;;;;;;;4.10;3.83;;;;;;;17.13;50.37;92124.38;5056141;27;20477;-72
2022/04/26 06:06:04;;;;;;;5.43;3.50;;;;;;;17.21;49.53;92101.66;5055115;28;20234;-74
2022/04/26 06:08:32;;;;;;;4.50;3.80;;;;;;;17.31;50.07;92111.97;5057773;27;20592;-74
2022/04/26 06:10:59;;;;;;;5.43;5.10;;;;;;;17.29;50.78;92113.84;5069611;27;20562;-73
2022/04/26 06:13:27;;;;;;;4.43;4.20;;;;;;;17.69;49.88;92103.94;5063994;27;20584;-73
2022/04/26 06:15:54;;;;;;;6.77;4.77;;;;;;;18.04;49.23;92114.75;5067093;27;20642;-73
2022/04/26 06:18:21;;;;;;;10.07;6.90;;;;;;;17.95;48.21;92118.06;5058878;27;20564;-74
2022/04/26 06:20:49;;;;;;;7.10;3.80;;;;;;;18.40;47.55;92123.00;5057355;27;21155;-73
2022/04/26 06:23:17;;;;;;;11.60;5.17;;;;;;;18.94;47.25;92126.22;5068662;27;20576;-74
2022/04/26 06:25:45;;;;;;;10.10;5.90;;;;;;;18.90;47.02;92122.28;5063629;27;20557;-75
2022/04/26 06:28:12;;;;;;;9.60;4.93;;;;;;;18.59;46.47;92125.75;5059895;27;20560;-74
2022/04/26 06:30:39;;;;;;;4.63;4.23;;;;;;;18.69;45.94;92118.13;5057965;28;20574;-74
2022/04/26 06:33:07;;;;;;;6.23;4.73;;;;;;;18.50;46.50;92104.22;5058050;27;20544;-74
2022/04/26 06:35:34;;;;;;;8.97;5.73;;;;;;;17.86;48.00;92093.19;5057282;28;20729;-73
2022/04/26 06:38:01;;;;;;;6.73;6.13;;;;;;;17.94;48.05;92090.88;5060031;27;20464;-73
2022/04/26 06:40:30;;;;;;;8.30;6.27;;;;;;;18.46;47.99;92096.94;5057401;28;20212;-74
2022/04/26 06:42:58;;;;;;;5.93;5.40;;;;;;;17.95;47.95;92096.78;5058380;27;20444;-75
2022/04/26 06:45:26;;;;;;;10.90;5.77;;;;;;;18.19;48.48;92092.28;5055980;27;20486;-75
2022/04/26 06:47:54;;;;;;;6.07;5.47;;;;;;;18.38;48.12;92086.50;5056154;27;20658;-73
2022/04/26 06:50:21;;;;;;;6.47;5.97;;;;;;;18.65;47.68;92091.16;5054902;28;20248;-74
2022/04/26 06:52:49;;;;;;;11.77;5.90;;;;;;;18.65;46.85;92097.06;5058637;27;20599;-75
2022/04/26 06:55:16;;;;;;;6.55;4.57;;;;;;;18.89;46.61;92101.94;5060549;27;20742;-75
2022/04/26 06:57:46;;;;;;;5.53;4.13;;;;;;;19.09;46.05;92102.84;5060421;27;20553;-75
2022/04/26 07:00:15;;;;;;;4.88;4.47;;;;;;;19.11;46.75;92098.38;5057638;27;20596;-76
2022/04/26 07:02:42;;;;;;;7.88;7.18;;;;;;;19.05;46.84;92090.28;5058662;27;20470;-73
2022/04/26 07:05:11;;;;;;;8.20;6.07;;;;;;;19.30;46.46;92083.94;5059915;27;20580;-76
2022/04/26 07:07:39;;;;;;;6.28;5.68;;;;;;;19.29;46.47;92084.88;5061509;27;20471;-75
2022/04/26 07:10:09;;;;;;;6.55;6.07;;;;;;;19.63;46.13;92089.72;5058626;27;20216;-75
2022/04/26 07:12:37;;;;;;;6.70;5.75;;;;;;;19.52;46.30;92079.56;5059269;27;20590;-76
2022/04/26 07:15:06;;;;;;;6.15;5.18;;;;;;;20.03;45.63;92095.59;5067507;27;20531;-75
2022/04/26 07:17:34;;;;;;;11.82;4.75;;;;;;;19.86;46.19;92084.22;5059228;27;20607;-76
2022/04/26 07:20:01;;;;;;;4.90;3.30;;;;;;;20.02;45.58;92093.16;5062355;27;20577;-75
2022/04/26 07:22:29;;;;;;;3.70;3.47;;;;;;;19.79;45.51;92082.31;5061721;27;20466;-76
2022/04/26 07:24:57;;;;;;;4.18;3.88;;;;;;;19.85;44.44;92089.47;5060975;27;20275;-76
2022/04/26 07:27:24;;;;;;;3.13;2.92;;;;;;;19.97;43.08;92080.72;5057968;27;20232;-75
2022/04/26 07:29:52;;;;;;;3.42;3.03;;;;;;;20.17;43.26;92096.94;5060596;27;20585;-74
2022/04/26 07:34:20;;;;;;;3.20;3.00;;;;;;;20.53;44.86;92096.28;5062143;27;20632;-76
2022/04/26 07:35:10;;;;;;;3.92;3.10;;;;;;;20.64;44.60;92093.56;5061834;27;20506;-75
2022/04/26 07:37:37;;;;;;;5.97;2.63;;;;;;;20.64;43.83;92090.19;5057466;28;20473;-74
2022/04/26 07:40:06;;;;;;;2.50;2.40;;;;;;;20.91;42.89;92100.56;5057850;28;20208;-74
2022/04/26 07:42:33;;;;;;;4.57;4.15;;;;;;;20.69;43.14;92100.84;5057837;27;20478;-73
2022/04/26 07:45:01;;;;;;;4.78;2.55;;;;;;;20.76;41.89;92099.38;5057809;27;20204;-73
2022/04/26 07:47:31;;;;;;;4.15;3.75;;;;;;;21.42;41.28;92094.19;5061293;27;20265;-74
2022/04/26 07:49:58;;;;;;;4.43;2.50;;;;;;;21.18;41.95;92061.31;5065149;27;20220;-74
2022/04/26 07:52:28;;;;;;;3.50;3.20;;;;;;;21.49;41.68;92101.22;5061556;27;20509;-74
2022/04/26 07:54:55;;;;;;;2.15;2.05;;;;;;;21.57;40.98;92097.13;5061970;27;20204;-73
2022/04/26 07:57:22;;;;;;;1.80;1.75;;;;;;;21.61;41.14;92104.41;5056854;27;20523;-75
2022/04/26 07:59:51;;;;;;;1.65;1.60;;;;;;;21.82;40.66;92109.28;5060311;27;20614;-73
2022/04/26 08:02:18;;;;;;;1.88;1.77;;;;;;;22.27;40.13;92106.72;5058266;27;20633;-75
2022/04/26 08:04:47;;;;;;;3.28;2.97;;;;;;;22.42;40.46;92100.09;5057301;27;20201;-74
2022/04/26 08:07:15;;;;;;;1.73;1.55;;;;;;;22.36;40.06;92110.22;5059349;27;20579;-73
2022/04/26 08:09:43;;;;;;;5.35;2.20;;;;;;;22.59;39.65;92103.66;5057137;27;20244;-75
2022/04/26 08:12:10;;;;;;;1.90;1.80;;;;;;;22.70;39.38;92106.78;5063336;27;20281;-74
2022/04/26 08:14:38;;;;;;;1.85;1.70;;;;;;;22.70;39.49;92106.00;5059888;27;20490;-74
2022/04/26 08:17:06;;;;;;;1.88;1.80;;;;;;;22.90;39.78;92098.91;5062792;27;20588;-74
2022/04/26 08:19:33;;;;;;;1.75;1.65;;;;;;;22.62;38.93;92070.69;5060135;27;20550;-74
2022/04/26 08:22:02;;;;;;;1.63;1.52;;;;;;;22.87;38.87;92104.38;5060542;27;20262;-75
2022/04/26 08:27:25;;;;;;;1.85;1.75;;;;;;;22.52;40.69;92094.91;5057786;27;20639;-75
2022/04/26 08:29:52;;;;;;;2.67;1.70;;;;;;;22.64;39.80;92099.69;5062205;27;20595;-74
2022/04/26 08:32:20;;;;;;;2.20;2.10;;;;;;;22.81;40.77;92086.94;5076237;27;20571;-75
2022/04/26 08:34:47;;;;;;;2.47;1.77;;;;;;;22.69;39.80;92086.34;5076750;27;20535;-75
2022/04/26 08:37:16;;;;;;;1.70;1.60;;;;;;;23.02;39.57;92100.28;5076874;27;20550;-75
2022/04/26 08:39:44;;;;;;;2.03;1.92;;;;;;;23.03;39.24;92097.56;5069054;27;20561;-75
2022/04/26 08:42:11;;;;;;;3.75;2.05;;;;;;;23.04;39.88;92086.28;5057203;27;20528;-74
2022/04/26 08:44:38;;;;;;;2.67;2.58;;;;;;;23.25;39.29;92065.31;5057140;28;20185;-74
2022/04/26 08:52:51;;;;;;;2.00;1.90;;;;;;;23.73;38.44;92090.53;5071247;27;20648;-75
2022/04/26 08:55:19;;;;;;;3.45;1.52;;;;;;;23.62;39.50;92090.78;5057835;28;20584;-75
2022/04/26 08:57:47;;;;;;;2.42;2.25;;;;;;;23.74;38.94;92084.41;5057236;28;20216;-74
2022/04/26 09:00:15;;;;;;;1.83;1.73;;;;;;;24.20;40.17;92072.78;5058636;27;20490;-74
2022/04/26 09:02:43;;;;;;;2.72;1.85;;;;;;;24.03;38.92;92089.16;5066984;27;20580;-75
2022/04/26 09:05:13;;;;;;;2.22;1.60;;;;;;;23.86;38.74;92079.75;5059599;27;20189;-74
2022/04/26 09:07:40;;;;;;;2.78;1.90;;;;;;;23.94;39.48;92067.69;5058770;27;20649;-74
2022/04/26 09:10:11;;;;;;;1.92;1.83;;;;;;;24.45;39.49;92060.69;5063363;27;20499;-73
2022/04/26 09:13:07;;;;;;;1.55;1.55;;;;;;;24.88;38.34;92071.66;5060501;27;20665;-74
2022/04/26 09:15:43;;;;;;;2.05;1.70;;;;;;;25.03;37.60;92068.28;5040321;27;20664;-74
2022/04/26 09:18:24;;;;;;;6.82;1.95;;;;;;;25.09;36.56;92095.25;5056702;27;20297;-74
2022/04/26 09:20:54;;;;;;;1.80;1.70;;;;;;;24.90;36.87;92080.09;5062138;27;20465;-75
2022/04/26 09:23:23;;;;;;;3.92;2.28;;;;;;;24.75;37.67;92088.47;5063437;27;20196;-72
2022/04/26 09:25:54;;;;;;;2.20;2.10;;;;;;;24.82;37.48;92080.06;5069221;27;20552;-73
2022/04/26 09:28:27;;;;;;;2.40;2.20;;;;;;;24.76;37.76;92071.19;5056268;27;20557;-72
2022/04/26 09:30:55;;;;;;;3.10;2.30;;;;;;;24.47;37.76;92078.59;5055473;27;20334;-72
2022/04/26 09:33:38;;;;;;;2.10;2.00;;;;;;;24.63;38.47;92073.44;5062265;27;20500;-73
2022/04/26 09:36:06;;;;;;;2.28;2.08;;;;;;;24.71;38.68;92063.94;5056159;27;20692;-73
2022/04/26 09:38:34;;;;;;;1.88;1.77;;;;;;;24.34;40.92;92042.94;5055308;27;20269;-73
2022/04/26 09:41:05;;;;;;;4.20;3.80;;;;;;;24.43;39.47;92054.09;5060748;27;20649;-73
2022/04/26 09:43:33;;;;;;;2.75;2.50;;;;;;;24.45;40.21;92044.41;5059525;27;20687;-74
2022/04/26 09:46:00;;;;;;;2.72;2.53;;;;;;;24.51;42.00;92034.22;5070857;27;20557;-73
2022/04/26 09:48:30;;;;;;;2.95;2.75;;;;;;;24.96;39.94;92049.22;5076877;27;20239;-73
2022/04/26 09:50:58;;;;;;;2.55;2.45;;;;;;;24.81;40.30;92042.28;5065077;27;20616;-74
2022/04/26 09:53:26;;;;;;;3.17;2.20;;;;;;;24.57;38.72;92058.59;5071076;27;20218;-73
2022/04/26 09:55:56;;;;;;;1.92;1.75;;;;;;;24.70;39.12;92058.91;5075993;27;20206;-73
2022/04/26 09:58:27;;;;;;;2.50;2.40;;;;;;;24.65;39.58;92049.06;5058433;27;20496;-73
2022/04/26 10:00:55;;;;;;;5.40;2.00;;;;;;;24.75;39.91;92041.16;5055771;28;20583;-73
2022/04/26 10:03:30;;;;;;;2.72;1.83;;;;;;;24.81;38.72;92044.84;5055820;28;20633;-73
2022/04/26 10:06:01;;;;;;;2.00;1.80;;;;;;;24.93;41.04;92015.16;5055677;28;20228;-73
2022/04/26 10:08:32;;;;;;;6.70;2.33;;;;;;;25.02;40.81;92029.66;5056458;28;20560;-73
2022/04/26 10:11:00;;;;;;;2.15;2.05;;;;;;;25.05;39.15;92040.50;5055444;27;20320;-73
2022/04/26 10:13:35;;;;;;;3.60;2.42;;;;;;;25.77;39.15;92030.88;5064870;27;20596;-74
2022/04/26 10:16:07;;;;;;;2.00;1.90;;;;;;;26.15;37.79;92049.13;5055767;28;20610;-74
2022/04/26 10:18:38;;;;;;;2.10;1.90;;;;;;;26.50;37.48;92048.59;5053831;28;20579;-73
2022/04/26 10:21:07;;;;;;;1.83;1.73;;;;;;;26.95;35.36;92068.50;5058775;27;20219;-73
2022/04/26 10:24:20;;;;;;;2.00;1.90;;;;;;;28.25;33.47;92077.47;5081497;27;20473;-73
2022/04/26 10:26:48;;;;;;;2.88;1.50;;;;;;;29.02;32.71;92078.44;5039156;27;20607;-74
2022/04/26 10:29:22;;;;;;;2.73;2.03;;;;;;;30.77;30.76;92077.94;5076132;27;20291;-73
2022/04/26 10:31:57;;;;;;;4.78;1.80;;;;;;;31.47;31.09;92073.97;5076743;27;20564;-74
2022/04/26 10:34:34;;;;;;;2.78;1.70;;;;;;;32.86;29.11;92075.06;5075792;27;20215;-74
2022/04/26 10:37:36;;;;;;;2.45;1.63;;;;;;;33.69;27.76;92099.22;5074183;27;20659;-75
2022/04/26 10:40:04;;;;;;;8.60;2.10;;;;;;;34.31;25.92;92086.88;5057504;27;20627;-75
2022/04/26 10:42:35;;;;;;;2.03;1.75;;;;;;;34.46;24.98;92123.25;5059751;28;20564;-74
2022/04/26 10:45:10;;;;;;;3.47;2.00;;;;;;;34.29;25.09;92111.75;5076004;27;20485;-75
2022/04/26 10:47:40;;;;;;;2.90;1.75;;;;;;;33.45;26.35;92117.59;5075587;27;20703;-75
2022/04/26 10:50:09;;;;;;;1.67;1.60;;;;;;;33.58;26.30;92105.16;5075554;27;20343;-72
2022/04/26 10:52:40;;;;;;;1.67;1.58;;;;;;;33.66;26.48;92111.94;5075917;27;20672;-72
2022/04/26 10:55:10;;;;;;;3.05;2.35;;;;;;;35.01;25.20;92116.09;5075700;27;20475;-75
2022/04/26 10:57:39;;;;;;;2.72;1.90;;;;;;;35.55;24.25;92122.94;5075615;27;20568;-73
2022/04/26 11:00:10;;;;;;;2.25;1.90;;;;;;;35.01;24.65;92118.72;5075580;27;20581;-74
2022/04/26 11:02:39;;;;;;;6.57;4.00;;;;;;;34.15;26.22;92100.56;5075129;27;20549;-74
2022/04/26 11:05:10;;;;;;;3.65;3.08;;;;;;;33.97;26.72;92092.72;5074803;27;20644;-75
2022/04/26 11:07:38;;;;;;;2.38;2.28;;;;;;;32.44;28.33;92081.75;5072990;27;20696;-72
2022/04/26 11:10:08;;;;;;;2.22;2.08;;;;;;;31.13;30.29;92068.97;5074305;27;20698;-73
2022/04/26 11:12:37;;;;;;;2.70;1.88;;;;;;;31.10;30.57;92075.38;5075346;27;20590;-73
2022/04/26 11:15:08;;;;;;;3.53;3.28;;;;;;;31.14;30.85;92070.56;5075362;27;20676;-74
2022/04/26 11:17:36;;;;;;;3.22;2.70;;;;;;;29.97;31.81;92065.66;5076043;27;20471;-73
2022/04/26 11:20:06;;;;;;;3.13;2.53;;;;;;;29.01;33.83;92050.03;5075521;27;20204;-74
2022/04/26 11:22:33;;;;;;;3.03;2.83;;;;;;;27.78;35.51;92050.13;5076452;27;20469;-74
2022/04/26 11:28:10;;;;;;;4.05;2.80;;;;;;;26.56;39.41;92045.31;5055023;28;20625;-73
2022/04/26 11:30:40;;;;;;;5.03;2.70;;;;;;;26.26;40.00;92031.44;5055056;28;20242;-74
2022/04/26 11:33:09;;;;;;;7.22;2.13;;;;;;;25.68;40.98;92018.16;5054951;28;20689;-74
2022/04/26 11:35:37;;;;;;;2.08;1.80;;;;;;;25.63;41.09;92020.47;5054886;28;20597;-74
2022/04/26 11:38:08;;;;;;;2.72;2.53;;;;;;;25.67;41.98;92008.78;5055506;28;20561;-74
2022/04/26 11:40:38;;;;;;;6.35;2.85;;;;;;;25.81;41.75;92016.63;5058644;28;20193;-75
2022/04/26 11:43:11;;;;;;;2.65;1.88;;;;;;;26.00;42.54;92003.25;5058856;28;20611;-73
2022/04/26 11:45:41;;;;;;;6.05;2.50;;;;;;;26.12;41.54;92008.84;5059051;28;20188;-73
2022/04/26 11:48:10;;;;;;;2.85;2.65;;;;;;;26.24;40.41;92015.28;5058669;28;20279;-73
2022/04/26 11:50:37;;;;;;;2.10;2.00;;;;;;;26.13;39.41;92027.78;5058403;28;20558;-73
2022/04/26 11:53:06;;;;;;;2.53;2.03;;;;;;;25.64;39.40;92025.44;5058447;28;20592;-74
2022/04/26 11:55:35;;;;;;;2.30;1.85;;;;;;;25.76;39.36;92025.88;5059069;28;20232;-74
2022/04/26 11:58:11;;;;;;;2.00;1.90;;;;;;;25.75;39.54;92011.31;5058334;28;20600;-74
2022/04/26 12:00:51;;;;;;;2.08;1.98;;;;;;;25.77;38.92;92022.31;5058549;28;20254;-74
2022/04/26 12:03:19;;;;;;;2.13;1.92;;;;;;;25.57;39.03;92021.94;5078509;27;20212;-75
2022/04/26 12:05:50;;;;;;;7.63;2.15;;;;;;;25.78;40.90;92016.16;5078399;27;20199;-74
2022/04/26 12:08:19;;;;;;;2.63;2.42;;;;;;;25.86;39.02;92026.47;5079074;27;20672;-73
2022/04/26 12:10:47;;;;;;;6.18;2.10;;;;;;;25.84;39.93;92018.09;5079304;27;20639;-74
2022/04/26 12:13:32;;;;;;;1.70;1.60;;;;;;;26.06;37.39;92034.63;5080404;27;20559;-74
2022/04/26 12:16:17;;;;;;;2.15;2.05;;;;;;;25.95;37.22;92023.69;5058337;28;20495;-74
2022/04/26 12:18:52;;;;;;;2.60;2.30;;;;;;;26.04;38.93;92023.63;5058092;27;20616;-74
2022/04/26 12:21:19;;;;;;;1.88;1.77;;;;;;;25.82;39.59;92010.47;5055865;28;20588;-74
2022/04/26 12:23:46;;;;;;;2.28;2.08;;;;;;;25.65;39.83;92011.53;5065770;27;20551;-75
2022/04/26 12:26:14;;;;;;;2.33;2.22;;;;;;;25.62;40.03;92005.91;5057928;28;20672;-74
2022/04/26 12:28:49;;;;;;;2.38;2.28;;;;;;;26.06;39.05;92008.72;5060117;27;20573;-75
2022/04/26 12:31:29;;;;;;;2.58;2.47;;;;;;;26.28;38.35;92016.53;5058110;27;20300;-74
2022/04/26 12:36:59;;;;;;;2.65;1.65;;;;;;;26.21;38.71;92014.75;5057378;27;20561;-74
2022/04/26 12:39:30;;;;;;;5.25;2.47;;;;;;;26.02;40.29;92008.28;5058460;28;20602;-74
2022/04/26 12:41:59;;;;;;;3.55;1.50;;;;;;;25.87;38.58;91997.03;5058019;27;20454;-75
2022/04/26 12:44:27;;;;;;;2.45;2.33;;;;;;;25.63;37.68;92010.91;5059041;27;20197;-75
2022/04/26 12:52:47;;;;;;;2.38;2.08;;;;;;;25.24;39.74;91997.94;5056388;27;20474;-74
2022/04/26 12:55:14;;;;;;;2.20;2.10;;;;;;;25.06;39.38;91997.38;5054550;27;20492;-74
2022/04/26 12:57:49;;;;;;;4.88;2.33;;;;;;;25.34;38.91;92001.16;5054630;27;20638;-74
2022/04/26 13:00:19;;;;;;;2.00;1.90;;;;;;;25.12;38.67;92002.69;5055321;27;20609;-75
2022/04/26 13:02:48;;;;;;;2.15;2.05;;;;;;;25.38;39.02;91986.91;5062707;27;20561;-74
2022/04/26 13:05:16;;;;;;;1.80;1.75;;;;;;;24.99;39.34;91994.63;5059082;27;20201;-74
2022/04/26 13:07:43;;;;;;;2.00;1.90;;;;;;;25.21;39.27;92003.44;5054227;28;20227;-74
2022/04/26 13:10:11;;;;;;;2.42;1.60;;;;;;;25.35;39.09;92005.31;5056651;28;20196;-74
2022/04/26 13:12:38;;;;;;;2.38;1.70;;;;;;;25.41;39.63;91999.47;5057042;28;20617;-74
2022/04/26 13:15:08;;;;;;;3.88;1.98;;;;;;;25.73;40.18;91977.88;5057228;27;20661;-74
2022/04/26 13:17:36;;;;;;;1.67;1.67;;;;;;;25.94;38.84;91993.59;5057344;28;20565;-75
2022/04/26 13:20:06;;;;;;;1.73;1.60;;;;;;;26.00;37.68;91969.59;5057353;28;20543;-74
2022/04/26 13:22:35;;;;;;;2.17;1.90;;;;;;;26.06;38.15;92003.53;5057660;27;20261;-75
2022/04/26 13:25:03;;;;;;;1.65;1.55;;;;;;;25.78;37.43;92014.38;5057409;27;20277;-76
2022/04/26 13:27:32;;;;;;;1.55;1.55;;;;;;;25.59;38.32;91997.50;5068913;27;20308;-74
2022/04/26 13:29:59;;;;;;;2.25;1.80;;;;;;;25.26;38.98;91993.41;5075489;27;20580;-74
2022/04/26 13:32:27;;;;;;;2.47;2.20;;;;;;;25.09;39.00;92004.78;5066765;27;20619;-74
2022/04/26 13:34:54;;;;;;;1.70;1.60;;;;;;;24.64;39.76;91985.47;5076287;27;20651;-75
2022/04/26 13:37:24;;;;;;;2.80;1.60;;;;;;;24.78;40.20;91995.13;5076020;27;20216;-75
2022/04/26 13:39:51;;;;;;;1.45;1.30;;;;;;;23.89;41.06;91984.78;5076841;27;20507;-77
2022/04/26 13:42:20;;;;;;;1.95;1.50;;;;;;;23.53;41.99;91955.88;5075950;27;20591;-75
2022/04/26 13:44:47;;;;;;;2.20;2.10;;;;;;;23.94;42.63;91976.59;5076497;27;20455;-74
2022/04/26 13:47:14;;;;;;;2.03;1.92;;;;;;;24.04;41.88;91972.06;5076743;27;20587;-74
2022/04/26 13:49:41;;;;;;;2.03;1.92;;;;;;;24.35;41.10;91993.72;5074947;27;20445;-74
2022/04/26 13:52:10;;;;;;;1.75;1.65;;;;;;;24.22;42.49;92008.09;5076076;27;20568;-78
2022/04/26 13:54:38;;;;;;;5.00;2.08;;;;;;;24.26;42.81;91994.69;5073065;27;20662;-75
2022/04/26 13:57:06;;;;;;;1.70;1.70;;;;;;;24.04;41.95;91982.38;5068091;27;20661;-75
2022/04/26 13:59:34;;;;;;;1.73;1.63;;;;;;;24.38;41.43;92008.09;5076933;27;20540;-75
2022/04/26 14:02:01;;;;;;;2.45;2.35;;;;;;;24.20;42.16;92012.59;5074917;27;20264;-74
2022/04/26 14:04:28;;;;;;;2.28;2.10;;;;;;;24.24;42.16;92009.53;5075242;27;20580;-75
2022/04/26 14:06:55;;;;;;;2.58;2.45;;;;;;;24.60;42.10;92012.59;5074597;27;20645;-75
2022/04/26 14:09:23;;;;;;;2.08;1.92;;;;;;;24.95;43.67;92005.47;5076634;27;20265;-72
2022/04/26 14:11:53;;;;;;;2.92;2.45;;;;;;;25.28;43.08;91988.06;5074603;27;20708;-73
2022/04/26 14:22:34;;;;;;;2.13;2.03;;;;;;;25.11;41.58;92024.34;5080259;27;20537;-73
2022/04/26 14:25:02;;;;;;;1.80;1.70;;;;;;;25.05;41.49;92024.19;5057596;27;20661;-72
2022/04/26 14:27:32;;;;;;;2.70;2.35;;;;;;;25.09;42.60;91999.59;5055116;28;20537;-73
2022/04/26 14:30:00;;;;;;;2.40;2.20;;;;;;;25.15;41.14;92019.63;5055173;28;20638;-73
2022/04/26 14:32:27;;;;;;;2.47;2.08;;;;;;;25.32;43.41;92004.84;5061086;27;20573;-73
2022/04/26 14:34:55;;;;;;;3.30;3.10;;;;;;;25.61;43.07;91997.34;5073874;27;20647;-73
2022/04/26 14:37:23;;;;;;;3.15;2.83;;;;;;;25.87;41.71;91994.44;5057796;27;20611;-73
2022/04/26 14:39:51;;;;;;;3.85;2.20;;;;;;;26.16;41.94;91997.16;5062705;27;20467;-72
2022/04/26 14:42:18;;;;;;;2.55;2.35;;;;;;;26.08;41.18;92017.13;5058616;27;20490;-74
2022/04/26 14:44:47;;;;;;;7.95;1.90;;;;;;;25.87;41.31;91989.25;5054092;28;20595;-72
2022/04/26 14:47:14;;;;;;;2.75;2.55;;;;;;;25.71;41.43;92021.22;5057979;28;20639;-74
2022/04/26 14:49:41;;;;;;;2.30;2.20;;;;;;;25.29;39.93;92020.72;5056313;28;20477;-73
2022/04/26 14:52:09;;;;;;;1.90;1.80;;;;;;;25.31;40.58;92014.41;5054874;28;20670;-72
2022/04/26 14:54:36;;;;;;;4.55;2.75;;;;;;;25.19;40.65;92010.56;5057542;28;20560;-72
2022/04/26 14:57:05;;;;;;;4.25;2.10;;;;;;;25.21;38.86;92023.31;5058678;28;20600;-72
2022/04/26 14:59:38;;;;;;;3.67;3.38;;;;;;;25.18;38.42;92014.91;5053022;28;20476;-73
2022/04/26 15:02:07;;;;;;;2.13;2.00;;;;;;;25.20;38.21;92035.44;5052787;28;20597;-74
2022/04/26 15:04:34;;;;;;;3.70;2.08;;;;;;;24.97;39.57;92019.81;5055662;28;20580;-73
2022/04/26 15:07:02;;;;;;;1.80;1.70;;;;;;;24.51;40.29;92030.81;5055861;28;20604;-74
2022/04/26 15:09:52;;;;;;;1.70;1.70;;;;;;;24.36;39.86;92033.25;5055710;28;20264;-72
2022/04/26 15:17:52;;;;;;;2.58;1.52;;;;;;;23.70;41.33;92033.28;5071206;27;20627;-73
2022/04/26 15:20:20;;;;;;;1.85;1.75;;;;;;;23.31;41.89;92015.72;5056386;27;20596;-73
2022/04/26 15:22:47;;;;;;;2.05;1.75;;;;;;;23.24;41.72;92017.28;5063141;27;21191;-74
2022/04/26 15:25:15;;;;;;;2.53;2.30;;;;;;;23.07;42.34;92013.03;5066870;27;20630;-74
2022/04/26 15:27:42;;;;;;;2.10;2.00;;;;;;;23.37;42.90;92009.13;5061855;27;20554;-72
2022/04/26 15:30:12;;;;;;;2.45;2.25;;;;;;;23.88;42.09;92005.59;5061937;27;20664;-73
2022/04/26 15:32:39;;;;;;;1.83;1.73;;;;;;;23.13;41.94;92004.69;5059595;27;20573;-74
2022/04/26 15:35:10;;;;;;;2.47;2.38;;;;;;;23.41;43.11;92018.97;5060330;27;20612;-74
2022/04/26 15:37:37;;;;;;;2.80;2.60;;;;;;;23.08;44.14;92014.66;5077167;27;20560;-74
2022/04/26 15:40:05;;;;;;;2.67;2.53;;;;;;;23.38;43.84;92024.44;5064836;27;20630;-73
2022/04/26 15:42:33;;;;;;;2.42;2.33;;;;;;;23.28;43.31;92021.16;5057763;27;20554;-74
2022/04/26 15:45:01;;;;;;;3.10;2.90;;;;;;;23.31;43.90;92030.38;5059267;27;20193;-74
2022/04/26 15:47:29;;;;;;;5.07;3.10;;;;;;;23.34;44.18;92030.06;5061111;27;20622;-74
2022/04/26 15:49:57;;;;;;;2.80;2.70;;;;;;;23.32;42.71;92037.97;5061586;27;20192;-74
2022/04/26 15:52:26;;;;;;;3.25;3.10;;;;;;;23.41;41.80;92047.34;5065176;27;20655;-75
2022/04/26 15:54:53;;;;;;;3.05;2.90;;;;;;;22.86;43.62;92048.66;5063738;27;20475;-75